sensor_id;sensor_type;location;lat;lon;timestamp;temperature;humidity
13682;DHT22;6913;49.892;7.936;2023-04-25T00:00:59;8.90;99.90
13682;DHT22;6913;49.892;7.936;2023-04-25T00:03:27;8.60;99.90
13682;DHT22;6913;49.892;7.936;2023-04-25T00:05:56;8.60;99.90
13682;DHT22;6913;49.892;7.936;2023-04-25T00:08:23;8.60;99.90
13682;DHT22;6913;49.892;7.936;2023-04-25T00:10:50;8.60;99.90
13682;DHT22;6913;49.892;7.936;2023-04-25T00:13:17;8.60;99.90
13682;DHT22;6913;49.892;7.936;2023-04-25T00:15:44;8.80;99.90
13682;DHT22;6913;49.892;7.936;2023-04-25T00:18:11;8.60;99.90
13682;DHT22;6913;49.892;7.936;2023-04-25T00:20:38;8.70;99.90
13682;DHT22;6913;49.892;7.936;2023-04-25T00:23:07;8.70;99.90
13682;DHT22;6913;49.892;7.936;2023-04-25T00:25:33;9.10;99.90
13682;DHT22;6913;49.892;7.936;2023-04-25T00:28:00;8.90;99.90
13682;DHT22;6913;49.892;7.936;2023-04-25T00:30:27;8.70;99.90
13682;DHT22;6913;49.892;7.936;2023-04-25T00:32:54;8.70;99.90
13682;DHT22;6913;49.892;7.936;2023-04-25T00:35:20;8.70;99.90
13682;DHT22;6913;49.892;7.936;2023-04-25T00:37:47;8.70;99.90
13682;DHT22;6913;49.892;7.936;2023-04-25T00:40:15;8.60;99.90
13682;DHT22;6913;49.892;7.936;2023-04-25T00:42:42;8.60;99.90
13682;DHT22;6913;49.892;7.936;2023-04-25T00:45:13;8.60;99.90
13682;DHT22;6913;49.892;7.936;2023-04-25T00:47:40;8.70;99.90
13682;DHT22;6913;49.892;7.936;2023-04-25T00:50:08;8.70;99.90
13682;DHT22;6913;49.892;7.936;2023-04-25T00:52:35;8.60;99.90
13682;DHT22;6913;49.892;7.936;2023-04-25T00:55:03;8.70;99.90
13682;DHT22;6913;49.892;7.936;2023-04-25T00:57:31;8.60;99.90
13682;DHT22;6913;49.892;7.936;2023-04-25T00:59:58;8.40;99.90
13682;DHT22;6913;49.892;7.936;2023-04-25T01:02:26;8.20;99.90
13682;DHT22;6913;49.892;7.936;2023-04-25T01:04:53;8.20;99.90
13682;DHT22;6913;49.892;7.936;2023-04-25T01:07:20;8.10;99.90
13682;DHT22;6913;49.892;7.936;2023-04-25T01:09:46;8.20;99.90
13682;DHT22;6913;49.892;7.936;2023-04-25T01:12:13;8.50;99.90
13682;DHT22;6913;49.892;7.936;2023-04-25T01:14:42;8.50;99.90
13682;DHT22;6913;49.892;7.936;2023-04-25T01:17:09;8.50;99.90
13682;DHT22;6913;49.892;7.936;2023-04-25T01:19:36;8.90;99.90
13682;DHT22;6913;49.892;7.936;2023-04-25T01:22:04;8.70;99.90
13682;DHT22;6913;49.892;7.936;2023-04-25T01:24:32;8.70;99.90
13682;DHT22;6913;49.892;7.936;2023-04-25T01:27:00;8.80;99.90
13682;DHT22;6913;49.892;7.936;2023-04-25T01:29:28;8.80;99.90
13682;DHT22;6913;49.892;7.936;2023-04-25T01:31:55;8.80;99.90
13682;DHT22;6913;49.892;7.936;2023-04-25T01:34:23;8.80;99.90
13682;DHT22;6913;49.892;7.936;2023-04-25T01:36:50;8.80;99.90
13682;DHT22;6913;49.892;7.936;2023-04-25T01:39:19;8.60;99.90
13682;DHT22;6913;49.892;7.936;2023-04-25T01:41:47;8.80;99.90
13682;DHT22;6913;49.892;7.936;2023-04-25T01:44:15;8.60;99.90
13682;DHT22;6913;49.892;7.936;2023-04-25T01:46:41;8.60;99.90
13682;DHT22;6913;49.892;7.936;2023-04-25T01:49:09;8.60;99.90
13682;DHT22;6913;49.892;7.936;2023-04-25T01:51:35;8.60;99.90
13682;DHT22;6913;49.892;7.936;2023-04-25T01:54:03;8.60;99.90
13682;DHT22;6913;49.892;7.936;2023-04-25T01:56:32;8.60;99.90
13682;DHT22;6913;49.892;7.936;2023-04-25T01:58:59;8.70;99.90
13682;DHT22;6913;49.892;7.936;2023-04-25T02:01:26;8.60;99.90
13682;DHT22;6913;49.892;7.936;2023-04-25T02:03:53;8.80;99.90
13682;DHT22;6913;49.892;7.936;2023-04-25T02:06:20;8.60;99.90
13682;DHT22;6913;49.892;7.936;2023-04-25T02:08:47;8.60;99.90
13682;DHT22;6913;49.892;7.936;2023-04-25T02:11:14;8.60;99.90
13682;DHT22;6913;49.892;7.936;2023-04-25T02:13:42;8.60;99.90
13682;DHT22;6913;49.892;7.936;2023-04-25T02:16:09;8.70;99.90
13682;DHT22;6913;49.892;7.936;2023-04-25T02:18:35;8.50;99.90
13682;DHT22;6913;49.892;7.936;2023-04-25T02:21:03;8.50;99.90
13682;DHT22;6913;49.892;7.936;2023-04-25T02:23:30;8.50;99.90
13682;DHT22;6913;49.892;7.936;2023-04-25T02:25:57;8.50;99.90
13682;DHT22;6913;49.892;7.936;2023-04-25T02:28:24;8.50;99.90
13682;DHT22;6913;49.892;7.936;2023-04-25T02:30:52;8.50;99.90
13682;DHT22;6913;49.892;7.936;2023-04-25T02:33:19;8.60;99.90
13682;DHT22;6913;49.892;7.936;2023-04-25T02:35:46;8.70;99.90
13682;DHT22;6913;49.892;7.936;2023-04-25T02:38:13;8.70;99.90
13682;DHT22;6913;49.892;7.936;2023-04-25T02:40:40;8.60;99.90
13682;DHT22;6913;49.892;7.936;2023-04-25T02:43:07;8.60;99.90
13682;DHT22;6913;49.892;7.936;2023-04-25T02:45:34;8.60;99.90
13682;DHT22;6913;49.892;7.936;2023-04-25T02:48:03;8.60;99.90
13682;DHT22;6913;49.892;7.936;2023-04-25T02:50:30;8.50;99.90
13682;DHT22;6913;49.892;7.936;2023-04-25T02:52:57;8.50;99.90
13682;DHT22;6913;49.892;7.936;2023-04-25T02:55:23;8.50;99.90
13682;DHT22;6913;49.892;7.936;2023-04-25T02:57:51;8.40;99.90
13682;DHT22;6913;49.892;7.936;2023-04-25T03:00:20;8.70;99.90
13682;DHT22;6913;49.892;7.936;2023-04-25T03:02:47;8.50;99.90
13682;DHT22;6913;49.892;7.936;2023-04-25T03:05:15;8.30;99.90
13682;DHT22;6913;49.892;7.936;2023-04-25T03:07:43;8.40;99.90
13682;DHT22;6913;49.892;7.936;2023-04-25T03:10:11;8.30;99.90
13682;DHT22;6913;49.892;7.936;2023-04-25T03:12:38;8.10;99.90
13682;DHT22;6913;49.892;7.936;2023-04-25T03:15:05;7.90;99.90
13682;DHT22;6913;49.892;7.936;2023-04-25T03:17:32;8.00;99.90
13682;DHT22;6913;49.892;7.936;2023-04-25T03:20:00;8.00;99.90
13682;DHT22;6913;49.892;7.936;2023-04-25T03:22:31;8.10;99.90
13682;DHT22;6913;49.892;7.936;2023-04-25T03:24:57;8.10;99.90
13682;DHT22;6913;49.892;7.936;2023-04-25T03:27:24;8.10;99.90
13682;DHT22;6913;49.892;7.936;2023-04-25T03:29:51;8.00;99.90
13682;DHT22;6913;49.892;7.936;2023-04-25T03:32:18;8.00;99.90
13682;DHT22;6913;49.892;7.936;2023-04-25T03:34:45;8.00;99.90
13682;DHT22;6913;49.892;7.936;2023-04-25T03:37:11;8.00;99.90
13682;DHT22;6913;49.892;7.936;2023-04-25T03:39:39;8.00;99.90
13682;DHT22;6913;49.892;7.936;2023-04-25T03:42:06;8.00;99.90
13682;DHT22;6913;49.892;7.936;2023-04-25T03:44:33;8.00;99.90
13682;DHT22;6913;49.892;7.936;2023-04-25T03:47:00;7.90;99.90
13682;DHT22;6913;49.892;7.936;2023-04-25T03:49:27;7.80;99.90
13682;DHT22;6913;49.892;7.936;2023-04-25T03:51:53;7.70;99.90
13682;DHT22;6913;49.892;7.936;2023-04-25T03:54:20;7.70;99.90
13682;DHT22;6913;49.892;7.936;2023-04-25T03:56:48;7.60;99.90
13682;DHT22;6913;49.892;7.936;2023-04-25T03:59:15;7.60;99.90
13682;DHT22;6913;49.892;7.936;2023-04-25T04:01:42;7.50;99.90
13682;DHT22;6913;49.892;7.936;2023-04-25T04:04:09;7.50;99.90
13682;DHT22;6913;49.892;7.936;2023-04-25T04:06:35;7.50;99.90
13682;DHT22;6913;49.892;7.936;2023-04-25T04:09:03;7.50;99.90
13682;DHT22;6913;49.892;7.936;2023-04-25T04:11:30;7.50;99.90
13682;DHT22;6913;49.892;7.936;2023-04-25T04:13:59;7.50;99.90
13682;DHT22;6913;49.892;7.936;2023-04-25T04:16:26;7.50;99.90
13682;DHT22;6913;49.892;7.936;2023-04-25T04:18:52;7.40;99.90
13682;DHT22;6913;49.892;7.936;2023-04-25T04:21:19;7.30;99.90
13682;DHT22;6913;49.892;7.936;2023-04-25T04:23:46;7.30;99.90
13682;DHT22;6913;49.892;7.936;2023-04-25T04:26:13;7.30;99.90
13682;DHT22;6913;49.892;7.936;2023-04-25T04:28:41;7.30;99.90
13682;DHT22;6913;49.892;7.936;2023-04-25T04:31:10;7.20;99.90
13682;DHT22;6913;49.892;7.936;2023-04-25T04:33:37;7.20;99.90
13682;DHT22;6913;49.892;7.936;2023-04-25T04:36:05;7.20;99.90
13682;DHT22;6913;49.892;7.936;2023-04-25T04:38:33;7.30;99.90
13682;DHT22;6913;49.892;7.936;2023-04-25T04:41:00;7.20;99.90
13682;DHT22;6913;49.892;7.936;2023-04-25T04:43:27;7.30;99.90
13682;DHT22;6913;49.892;7.936;2023-04-25T04:45:55;7.30;99.90
13682;DHT22;6913;49.892;7.936;2023-04-25T04:48:24;7.30;99.90
13682;DHT22;6913;49.892;7.936;2023-04-25T04:50:51;7.40;99.90
13682;DHT22;6913;49.892;7.936;2023-04-25T04:53:19;8.20;99.90
13682;DHT22;6913;49.892;7.936;2023-04-25T04:55:46;7.40;99.90
13682;DHT22;6913;49.892;7.936;2023-04-25T04:58:12;7.40;99.90
13682;DHT22;6913;49.892;7.936;2023-04-25T05:00:39;7.50;99.90
13682;DHT22;6913;49.892;7.936;2023-04-25T05:03:06;7.50;99.90
13682;DHT22;6913;49.892;7.936;2023-04-25T05:05:34;7.60;99.90
13682;DHT22;6913;49.892;7.936;2023-04-25T05:08:01;7.80;99.90
13682;DHT22;6913;49.892;7.936;2023-04-25T05:10:27;8.30;99.90
13682;DHT22;6913;49.892;7.936;2023-04-25T05:12:54;8.60;99.90
13682;DHT22;6913;49.892;7.936;2023-04-25T05:15:21;8.40;99.90
13682;DHT22;6913;49.892;7.936;2023-04-25T05:17:48;8.50;99.90
13682;DHT22;6913;49.892;7.936;2023-04-25T05:20:14;8.40;99.90
13682;DHT22;6913;49.892;7.936;2023-04-25T05:22:43;8.40;99.90
13682;DHT22;6913;49.892;7.936;2023-04-25T05:25:09;8.20;99.90
13682;DHT22;6913;49.892;7.936;2023-04-25T05:27:36;8.10;99.90
13682;DHT22;6913;49.892;7.936;2023-04-25T05:30:04;8.00;99.90
13682;DHT22;6913;49.892;7.936;2023-04-25T05:32:31;7.80;99.90
13682;DHT22;6913;49.892;7.936;2023-04-25T05:34:58;7.70;99.90
13682;DHT22;6913;49.892;7.936;2023-04-25T05:37:25;7.70;99.90
13682;DHT22;6913;49.892;7.936;2023-04-25T05:39:53;7.60;99.90
13682;DHT22;6913;49.892;7.936;2023-04-25T05:42:20;7.60;99.90
13682;DHT22;6913;49.892;7.936;2023-04-25T05:44:46;7.70;99.90
13682;DHT22;6913;49.892;7.936;2023-04-25T05:47:13;7.70;99.90
13682;DHT22;6913;49.892;7.936;2023-04-25T05:49:40;7.80;99.90
13682;DHT22;6913;49.892;7.936;2023-04-25T05:52:07;7.80;99.90
13682;DHT22;6913;49.892;7.936;2023-04-25T05:54:34;7.90;99.90
13682;DHT22;6913;49.892;7.936;2023-04-25T05:57:02;8.30;99.90
13682;DHT22;6913;49.892;7.936;2023-04-25T05:59:29;8.10;99.90
13682;DHT22;6913;49.892;7.936;2023-04-25T06:01:55;8.20;99.90
13682;DHT22;6913;49.892;7.936;2023-04-25T06:04:22;8.30;99.90
13682;DHT22;6913;49.892;7.936;2023-04-25T06:06:49;8.30;99.90
13682;DHT22;6913;49.892;7.936;2023-04-25T06:09:16;8.30;99.90
13682;DHT22;6913;49.892;7.936;2023-04-25T06:11:42;8.30;99.90
13682;DHT22;6913;49.892;7.936;2023-04-25T06:14:10;8.30;99.90
13682;DHT22;6913;49.892;7.936;2023-04-25T06:16:37;8.30;99.90
13682;DHT22;6913;49.892;7.936;2023-04-25T06:19:04;8.20;99.90
13682;DHT22;6913;49.892;7.936;2023-04-25T06:21:31;8.20;99.90
13682;DHT22;6913;49.892;7.936;2023-04-25T06:23:57;8.20;99.90
13682;DHT22;6913;49.892;7.936;2023-04-25T06:26:24;8.10;99.90
13682;DHT22;6913;49.892;7.936;2023-04-25T06:28:51;8.50;99.90
13682;DHT22;6913;49.892;7.936;2023-04-25T06:31:19;8.30;99.90
13682;DHT22;6913;49.892;7.936;2023-04-25T06:33:46;8.20;99.90
13682;DHT22;6913;49.892;7.936;2023-04-25T06:36:13;8.20;99.90
13682;DHT22;6913;49.892;7.936;2023-04-25T06:38:40;8.40;99.90
13682;DHT22;6913;49.892;7.936;2023-04-25T06:41:07;8.50;99.90
13682;DHT22;6913;49.892;7.936;2023-04-25T06:43:34;8.60;99.90
13682;DHT22;6913;49.892;7.936;2023-04-25T06:46:00;8.60;99.90
13682;DHT22;6913;49.892;7.936;2023-04-25T06:48:29;8.60;99.90
13682;DHT22;6913;49.892;7.936;2023-04-25T06:50:55;8.70;99.90
13682;DHT22;6913;49.892;7.936;2023-04-25T06:53:22;8.60;99.90
13682;DHT22;6913;49.892;7.936;2023-04-25T06:55:49;8.50;99.90
13682;DHT22;6913;49.892;7.936;2023-04-25T06:58:17;8.50;99.90
13682;DHT22;6913;49.892;7.936;2023-04-25T07:00:44;8.40;99.90
13682;DHT22;6913;49.892;7.936;2023-04-25T07:03:11;8.70;99.90
13682;DHT22;6913;49.892;7.936;2023-04-25T07:05:39;8.50;99.90
13682;DHT22;6913;49.892;7.936;2023-04-25T07:08:06;8.40;99.90
13682;DHT22;6913;49.892;7.936;2023-04-25T07:10:32;8.40;99.90
13682;DHT22;6913;49.892;7.936;2023-04-25T07:13:00;8.40;99.90
13682;DHT22;6913;49.892;7.936;2023-04-25T07:15:27;8.40;99.90
13682;DHT22;6913;49.892;7.936;2023-04-25T07:17:53;8.40;99.90
13682;DHT22;6913;49.892;7.936;2023-04-25T07:20:20;8.40;99.90
13682;DHT22;6913;49.892;7.936;2023-04-25T07:22:48;8.80;99.90
13682;DHT22;6913;49.892;7.936;2023-04-25T07:25:15;8.70;99.90
13682;DHT22;6913;49.892;7.936;2023-04-25T07:27:42;8.90;99.90
13682;DHT22;6913;49.892;7.936;2023-04-25T07:30:10;9.00;99.90
13682;DHT22;6913;49.892;7.936;2023-04-25T07:32:38;9.20;99.90
13682;DHT22;6913;49.892;7.936;2023-04-25T07:35:05;9.40;99.90
13682;DHT22;6913;49.892;7.936;2023-04-25T07:37:33;9.70;99.90
13682;DHT22;6913;49.892;7.936;2023-04-25T07:40:01;10.00;99.90
13682;DHT22;6913;49.892;7.936;2023-04-25T07:42:29;10.20;99.90
13682;DHT22;6913;49.892;7.936;2023-04-25T07:44:56;10.70;99.90
13682;DHT22;6913;49.892;7.936;2023-04-25T07:47:22;10.60;99.90
13682;DHT22;6913;49.892;7.936;2023-04-25T07:49:49;11.00;99.90
13682;DHT22;6913;49.892;7.936;2023-04-25T07:52:16;11.30;99.90
13682;DHT22;6913;49.892;7.936;2023-04-25T07:54:43;11.60;99.90
13682;DHT22;6913;49.892;7.936;2023-04-25T07:57:12;11.60;95.00
13682;DHT22;6913;49.892;7.936;2023-04-25T07:59:39;11.50;95.70
13682;DHT22;6913;49.892;7.936;2023-04-25T08:02:06;11.40;99.90
13682;DHT22;6913;49.892;7.936;2023-04-25T08:04:32;11.30;83.90
13682;DHT22;6913;49.892;7.936;2023-04-25T08:07:00;11.30;99.90
13682;DHT22;6913;49.892;7.936;2023-04-25T08:09:27;11.20;98.30
13682;DHT22;6913;49.892;7.936;2023-04-25T08:11:54;11.40;90.60
13682;DHT22;6913;49.892;7.936;2023-04-25T08:14:22;11.80;76.20
13682;DHT22;6913;49.892;7.936;2023-04-25T08:16:49;12.10;98.60
13682;DHT22;6913;49.892;7.936;2023-04-25T08:19:16;12.60;56.00
13682;DHT22;6913;49.892;7.936;2023-04-25T08:21:43;13.10;93.40
13682;DHT22;6913;49.892;7.936;2023-04-25T08:24:10;13.10;3.70
13682;DHT22;6913;49.892;7.936;2023-04-25T08:26:36;12.60;22.90
13682;DHT22;6913;49.892;7.936;2023-04-25T08:29:04;12.80;36.80
13682;DHT22;6913;49.892;7.936;2023-04-25T08:31:33;13.10;5.90
13682;DHT22;6913;49.892;7.936;2023-04-25T08:34:00;13.10;4.20
13682;DHT22;6913;49.892;7.936;2023-04-25T08:36:26;13.00;1.00
13682;DHT22;6913;49.892;7.936;2023-04-25T08:38:54;12.60;1.00
13682;DHT22;6913;49.892;7.936;2023-04-25T08:41:21;12.50;1.00
13682;DHT22;6913;49.892;7.936;2023-04-25T08:43:49;12.50;1.00
13682;DHT22;6913;49.892;7.936;2023-04-25T08:46:17;12.40;27.00
13682;DHT22;6913;49.892;7.936;2023-04-25T08:48:46;12.20;9.80
13682;DHT22;6913;49.892;7.936;2023-04-25T08:51:20;12.40;57.50
13682;DHT22;6913;49.892;7.936;2023-04-25T08:53:49;12.40;12.50
13682;DHT22;6913;49.892;7.936;2023-04-25T08:56:18;12.50;39.20
13682;DHT22;6913;49.892;7.936;2023-04-25T08:58:48;12.60;1.00
13682;DHT22;6913;49.892;7.936;2023-04-25T09:01:15;12.60;2.30
13682;DHT22;6913;49.892;7.936;2023-04-25T09:03:42;12.70;21.40
13682;DHT22;6913;49.892;7.936;2023-04-25T09:06:11;12.30;34.70
13682;DHT22;6913;49.892;7.936;2023-04-25T09:08:38;12.20;15.90
13682;DHT22;6913;49.892;7.936;2023-04-25T09:11:06;11.90;15.90
13682;DHT22;6913;49.892;7.936;2023-04-25T09:13:34;11.90;14.40
13682;DHT22;6913;49.892;7.936;2023-04-25T09:16:01;12.10;1.00
13682;DHT22;6913;49.892;7.936;2023-04-25T09:18:29;12.10;1.00
13682;DHT22;6913;49.892;7.936;2023-04-25T09:20:58;12.60;1.00
13682;DHT22;6913;49.892;7.936;2023-04-25T09:23:39;13.20;1.00
13682;DHT22;6913;49.892;7.936;2023-04-25T09:26:07;13.40;1.00
13682;DHT22;6913;49.892;7.936;2023-04-25T09:28:34;13.30;1.00
13682;DHT22;6913;49.892;7.936;2023-04-25T09:31:01;13.50;1.00
13682;DHT22;6913;49.892;7.936;2023-04-25T09:33:29;13.50;1.00
13682;DHT22;6913;49.892;7.936;2023-04-25T09:36:02;13.30;1.00
13682;DHT22;6913;49.892;7.936;2023-04-25T09:38:32;12.60;1.00
13682;DHT22;6913;49.892;7.936;2023-04-25T09:40:58;12.30;1.00
13682;DHT22;6913;49.892;7.936;2023-04-25T09:43:26;12.10;1.00
13682;DHT22;6913;49.892;7.936;2023-04-25T09:45:54;12.10;1.00
13682;DHT22;6913;49.892;7.936;2023-04-25T09:48:25;11.90;1.00
13682;DHT22;6913;49.892;7.936;2023-04-25T09:51:06;11.80;1.00
13682;DHT22;6913;49.892;7.936;2023-04-25T09:53:34;12.00;1.00
13682;DHT22;6913;49.892;7.936;2023-04-25T09:56:03;12.00;1.00
13682;DHT22;6913;49.892;7.936;2023-04-25T09:58:32;12.20;1.00
13682;DHT22;6913;49.892;7.936;2023-04-25T10:01:00;12.00;1.00
13682;DHT22;6913;49.892;7.936;2023-04-25T10:03:30;11.70;1.00
13682;DHT22;6913;49.892;7.936;2023-04-25T10:05:59;11.90;1.00
13682;DHT22;6913;49.892;7.936;2023-04-25T10:08:30;11.80;1.00
13682;DHT22;6913;49.892;7.936;2023-04-25T10:11:00;12.00;1.00
13682;DHT22;6913;49.892;7.936;2023-04-25T10:13:29;12.30;1.00
13682;DHT22;6913;49.892;7.936;2023-04-25T10:15:58;12.30;1.00
13682;DHT22;6913;49.892;7.936;2023-04-25T10:18:27;12.60;1.00
13682;DHT22;6913;49.892;7.936;2023-04-25T10:20:54;13.10;1.00
13682;DHT22;6913;49.892;7.936;2023-04-25T10:23:22;13.60;1.00
13682;DHT22;6913;49.892;7.936;2023-04-25T10:25:50;14.40;1.00
13682;DHT22;6913;49.892;7.936;2023-04-25T10:30:59;15.10;1.00
13682;DHT22;6913;49.892;7.936;2023-04-25T10:33:36;15.50;99.90
13682;DHT22;6913;49.892;7.936;2023-04-25T10:36:11;15.40;1.00
13682;DHT22;6913;49.892;7.936;2023-04-25T10:38:38;15.30;1.00
13682;DHT22;6913;49.892;7.936;2023-04-25T10:41:06;14.70;1.00
13682;DHT22;6913;49.892;7.936;2023-04-25T10:43:37;14.40;1.00
13682;DHT22;6913;49.892;7.936;2023-04-25T10:46:13;14.00;1.00
13682;DHT22;6913;49.892;7.936;2023-04-25T10:48:45;13.70;1.00
13682;DHT22;6913;49.892;7.936;2023-04-25T10:51:17;13.40;1.00
13682;DHT22;6913;49.892;7.936;2023-04-25T10:53:44;13.10;1.00
13682;DHT22;6913;49.892;7.936;2023-04-25T10:56:12;13.20;1.00
13682;DHT22;6913;49.892;7.936;2023-04-25T10:58:45;13.30;1.00
13682;DHT22;6913;49.892;7.936;2023-04-25T11:01:12;13.50;1.00
13682;DHT22;6913;49.892;7.936;2023-04-25T11:03:43;13.80;1.00
13682;DHT22;6913;49.892;7.936;2023-04-25T11:06:20;14.20;1.00
13682;DHT22;6913;49.892;7.936;2023-04-25T11:08:50;14.00;1.00
13682;DHT22;6913;49.892;7.936;2023-04-25T11:11:18;13.80;1.00
13682;DHT22;6913;49.892;7.936;2023-04-25T11:13:48;13.80;1.00
13682;DHT22;6913;49.892;7.936;2023-04-25T11:18:44;14.00;1.00
13682;DHT22;6913;49.892;7.936;2023-04-25T11:21:11;13.70;1.00
13682;DHT22;6913;49.892;7.936;2023-04-25T11:23:38;13.80;99.90
13682;DHT22;6913;49.892;7.936;2023-04-25T11:26:05;13.30;1.00
13682;DHT22;6913;49.892;7.936;2023-04-25T11:28:31;13.00;1.00
13682;DHT22;6913;49.892;7.936;2023-04-25T11:30:59;12.60;1.00
13682;DHT22;6913;49.892;7.936;2023-04-25T11:33:26;12.40;1.00
13682;DHT22;6913;49.892;7.936;2023-04-25T11:35:53;12.50;1.00
13682;DHT22;6913;49.892;7.936;2023-04-25T11:38:22;12.40;1.00
13682;DHT22;6913;49.892;7.936;2023-04-25T11:40:52;12.20;1.00
13682;DHT22;6913;49.892;7.936;2023-04-25T11:43:20;12.10;1.00
13682;DHT22;6913;49.892;7.936;2023-04-25T11:45:48;12.20;1.00
13682;DHT22;6913;49.892;7.936;2023-04-25T11:48:17;12.50;1.00
13682;DHT22;6913;49.892;7.936;2023-04-25T11:50:44;12.60;1.00
13682;DHT22;6913;49.892;7.936;2023-04-25T11:53:11;12.50;1.00
13682;DHT22;6913;49.892;7.936;2023-04-25T11:55:38;12.80;1.00
13682;DHT22;6913;49.892;7.936;2023-04-25T11:58:05;12.90;1.00
13682;DHT22;6913;49.892;7.936;2023-04-25T12:00:34;13.10;99.90
13682;DHT22;6913;49.892;7.936;2023-04-25T12:03:01;13.30;1.00
13682;DHT22;6913;49.892;7.936;2023-04-25T12:05:31;13.40;99.90
13682;DHT22;6913;49.892;7.936;2023-04-25T12:08:09;13.50;1.00
13682;DHT22;6913;49.892;7.936;2023-04-25T12:10:38;14.10;1.00
13682;DHT22;6913;49.892;7.936;2023-04-25T12:13:18;14.40;1.00
13682;DHT22;6913;49.892;7.936;2023-04-25T12:15:45;14.50;1.00
13682;DHT22;6913;49.892;7.936;2023-04-25T12:18:12;14.60;1.00
13682;DHT22;6913;49.892;7.936;2023-04-25T12:20:41;14.20;1.00
13682;DHT22;6913;49.892;7.936;2023-04-25T12:23:08;14.10;99.90
13682;DHT22;6913;49.892;7.936;2023-04-25T12:25:37;14.10;66.60
13682;DHT22;6913;49.892;7.936;2023-04-25T12:28:15;14.00;1.00
13682;DHT22;6913;49.892;7.936;2023-04-25T12:30:58;14.20;1.00
13682;DHT22;6913;49.892;7.936;2023-04-25T12:33:27;14.70;99.90
13682;DHT22;6913;49.892;7.936;2023-04-25T12:35:55;14.70;1.00
13682;DHT22;6913;49.892;7.936;2023-04-25T12:38:24;14.90;1.00
13682;DHT22;6913;49.892;7.936;2023-04-25T12:40:51;15.30;1.00
13682;DHT22;6913;49.892;7.936;2023-04-25T12:43:18;15.70;1.00
13682;DHT22;6913;49.892;7.936;2023-04-25T12:45:45;15.50;1.00
13682;DHT22;6913;49.892;7.936;2023-04-25T12:48:13;15.50;99.90
13682;DHT22;6913;49.892;7.936;2023-04-25T12:50:40;15.60;99.90
13682;DHT22;6913;49.892;7.936;2023-04-25T12:53:09;15.50;22.80
13682;DHT22;6913;49.892;7.936;2023-04-25T12:55:35;15.30;1.00
13682;DHT22;6913;49.892;7.936;2023-04-25T12:58:02;15.40;22.60
13682;DHT22;6913;49.892;7.936;2023-04-25T13:00:29;15.40;1.00
13682;DHT22;6913;49.892;7.936;2023-04-25T13:02:57;14.70;1.00
13682;DHT22;6913;49.892;7.936;2023-04-25T13:05:24;14.70;99.90
13682;DHT22;6913;49.892;7.936;2023-04-25T13:07:51;15.00;1.00
13682;DHT22;6913;49.892;7.936;2023-04-25T13:10:19;14.80;93.30
13682;DHT22;6913;49.892;7.936;2023-04-25T13:12:46;14.40;85.20
13682;DHT22;6913;49.892;7.936;2023-04-25T13:15:13;14.70;4.90
13682;DHT22;6913;49.892;7.936;2023-04-25T13:17:41;14.70;1.00
13682;DHT22;6913;49.892;7.936;2023-04-25T13:20:09;14.60;99.90
13682;DHT22;6913;49.892;7.936;2023-04-25T13:22:36;14.50;99.90
13682;DHT22;6913;49.892;7.936;2023-04-25T13:25:04;14.50;1.00
13682;DHT22;6913;49.892;7.936;2023-04-25T13:27:33;15.20;1.00
13682;DHT22;6913;49.892;7.936;2023-04-25T13:30:02;15.60;1.00
13682;DHT22;6913;49.892;7.936;2023-04-25T13:32:32;15.30;1.00
13682;DHT22;6913;49.892;7.936;2023-04-25T13:34:59;14.90;1.00
13682;DHT22;6913;49.892;7.936;2023-04-25T13:37:26;14.70;99.90
13682;DHT22;6913;49.892;7.936;2023-04-25T13:39:55;14.70;11.10
13682;DHT22;6913;49.892;7.936;2023-04-25T13:42:22;14.50;1.00
13682;DHT22;6913;49.892;7.936;2023-04-25T13:44:51;14.10;99.90
13682;DHT22;6913;49.892;7.936;2023-04-25T13:47:18;14.10;1.00
13682;DHT22;6913;49.892;7.936;2023-04-25T13:49:44;14.00;99.90
13682;DHT22;6913;49.892;7.936;2023-04-25T13:52:11;13.90;99.90
13682;DHT22;6913;49.892;7.936;2023-04-25T13:54:38;13.60;1.00
13682;DHT22;6913;49.892;7.936;2023-04-25T13:57:06;13.40;1.00
13682;DHT22;6913;49.892;7.936;2023-04-25T13:59:32;13.30;1.00
13682;DHT22;6913;49.892;7.936;2023-04-25T14:02:00;13.50;1.00
13682;DHT22;6913;49.892;7.936;2023-04-25T14:04:27;13.00;1.00
13682;DHT22;6913;49.892;7.936;2023-04-25T14:06:55;13.00;37.70
13682;DHT22;6913;49.892;7.936;2023-04-25T14:09:22;13.10;1.00
13682;DHT22;6913;49.892;7.936;2023-04-25T14:11:51;13.20;1.00
13682;DHT22;6913;49.892;7.936;2023-04-25T14:14:17;13.00;1.00
13682;DHT22;6913;49.892;7.936;2023-04-25T14:16:44;13.20;99.90
13682;DHT22;6913;49.892;7.936;2023-04-25T14:19:14;13.00;35.70
13682;DHT22;6913;49.892;7.936;2023-04-25T14:21:42;13.00;25.30
13682;DHT22;6913;49.892;7.936;2023-04-25T14:24:09;12.90;1.00
13682;DHT22;6913;49.892;7.936;2023-04-25T14:26:36;13.10;1.00
13682;DHT22;6913;49.892;7.936;2023-04-25T14:29:03;13.20;1.00
13682;DHT22;6913;49.892;7.936;2023-04-25T14:31:31;13.40;45.40
13682;DHT22;6913;49.892;7.936;2023-04-25T14:33:57;13.30;1.00
13682;DHT22;6913;49.892;7.936;2023-04-25T14:36:26;13.50;1.00
13682;DHT22;6913;49.892;7.936;2023-04-25T14:38:52;13.50;1.00
13682;DHT22;6913;49.892;7.936;2023-04-25T14:41:19;13.50;99.90
13682;DHT22;6913;49.892;7.936;2023-04-25T14:43:46;13.50;1.00
13682;DHT22;6913;49.892;7.936;2023-04-25T14:46:13;13.60;1.00
13682;DHT22;6913;49.892;7.936;2023-04-25T14:48:40;13.60;1.00
13682;DHT22;6913;49.892;7.936;2023-04-25T14:51:07;13.30;99.90
13682;DHT22;6913;49.892;7.936;2023-04-25T14:53:35;13.20;1.00
13682;DHT22;6913;49.892;7.936;2023-04-25T14:56:02;12.90;99.90
13682;DHT22;6913;49.892;7.936;2023-04-25T14:58:29;12.70;99.90
13682;DHT22;6913;49.892;7.936;2023-04-25T15:00:56;12.60;1.00
13682;DHT22;6913;49.892;7.936;2023-04-25T15:03:23;12.40;99.90
13682;DHT22;6913;49.892;7.936;2023-04-25T15:05:49;12.30;11.30
13682;DHT22;6913;49.892;7.936;2023-04-25T15:08:16;12.20;1.00
13682;DHT22;6913;49.892;7.936;2023-04-25T15:10:46;12.20;99.90
13682;DHT22;6913;49.892;7.936;2023-04-25T15:13:13;12.20;1.00
13682;DHT22;6913;49.892;7.936;2023-04-25T15:15:40;12.20;99.90
13682;DHT22;6913;49.892;7.936;2023-04-25T15:18:07;12.30;63.40
13682;DHT22;6913;49.892;7.936;2023-04-25T15:20:34;12.40;1.00
13682;DHT22;6913;49.892;7.936;2023-04-25T15:23:01;12.50;1.00
13682;DHT22;6913;49.892;7.936;2023-04-25T15:25:30;12.50;99.90
13682;DHT22;6913;49.892;7.936;2023-04-25T15:27:58;12.50;1.00
13682;DHT22;6913;49.892;7.936;2023-04-25T15:30:25;12.40;99.90
13682;DHT22;6913;49.892;7.936;2023-04-25T15:32:52;12.40;1.00
13682;DHT22;6913;49.892;7.936;2023-04-25T15:35:19;12.50;1.00
13682;DHT22;6913;49.892;7.936;2023-04-25T15:37:45;12.40;1.00
13682;DHT22;6913;49.892;7.936;2023-04-25T15:40:15;12.40;45.60
13682;DHT22;6913;49.892;7.936;2023-04-25T15:42:43;12.20;99.90
13682;DHT22;6913;49.892;7.936;2023-04-25T15:45:14;12.10;1.00
13682;DHT22;6913;49.892;7.936;2023-04-25T15:47:42;12.10;1.00
13682;DHT22;6913;49.892;7.936;2023-04-25T15:50:10;12.10;1.00
13682;DHT22;6913;49.892;7.936;2023-04-25T15:52:37;12.00;99.90
13682;DHT22;6913;49.892;7.936;2023-04-25T15:55:05;12.10;99.90
13682;DHT22;6913;49.892;7.936;2023-04-25T15:57:33;12.10;1.00
13682;DHT22;6913;49.892;7.936;2023-04-25T16:00:01;12.00;1.00
13682;DHT22;6913;49.892;7.936;2023-04-25T16:02:31;12.00;99.90
13682;DHT22;6913;49.892;7.936;2023-04-25T16:04:57;11.90;1.00
13682;DHT22;6913;49.892;7.936;2023-04-25T16:07:24;11.90;1.00